createdAt,value
2019-02-10T00:00:01.756Z,8.24
2019-02-10T00:01:01.744Z,8.21
2019-02-10T00:02:01.763Z,8.24
2019-02-10T00:03:01.735Z,8.09
2019-02-10T00:04:01.710Z,8.16
2019-02-10T00:05:01.722Z,8.13
2019-02-10T00:06:01.692Z,8.13
2019-02-10T00:07:01.709Z,8.09
2019-02-10T00:08:01.669Z,8.14
2019-02-10T00:09:01.666Z,8.03
2019-02-10T00:10:01.640Z,8.01
2019-02-10T00:11:01.725Z,7.96
2019-02-10T00:12:01.635Z,8.01
2019-02-10T00:13:01.636Z,7.95
2019-02-10T00:14:01.615Z,8.05
2019-02-10T00:15:01.622Z,8.08
2019-02-10T00:16:01.575Z,7.98
2019-02-10T00:17:01.569Z,8.09
2019-02-10T00:18:01.576Z,8.06
2019-02-10T00:19:01.549Z,7.99
2019-02-10T00:20:01.538Z,7.99
2019-02-10T00:21:01.524Z,7.87
2019-02-10T00:22:01.510Z,7.90
2019-02-10T00:23:01.530Z,7.85
2019-02-10T00:24:01.491Z,7.75
2019-02-10T00:25:01.486Z,7.83
2019-02-10T00:26:01.467Z,7.77
2019-02-10T00:27:01.460Z,7.77
2019-02-10T00:28:01.470Z,7.87
2019-02-10T00:29:01.443Z,7.77
2019-02-10T00:30:01.443Z,7.74
2019-02-10T00:31:01.426Z,7.77
2019-02-10T00:32:01.407Z,7.81
2019-02-10T00:33:01.493Z,7.75
2019-02-10T00:34:01.378Z,7.78
2019-02-10T00:35:01.370Z,7.80
2019-02-10T00:36:01.367Z,7.75
2019-02-10T00:37:01.372Z,7.67
2019-02-10T00:38:01.346Z,7.72
2019-02-10T00:39:01.330Z,7.81
2019-02-10T00:40:01.315Z,7.64
2019-02-10T00:41:01.316Z,7.77
2019-02-10T00:42:01.291Z,7.80
2019-02-10T00:43:01.297Z,7.75
2019-02-10T00:44:01.263Z,7.70
2019-02-10T00:45:01.259Z,7.70
2019-02-10T00:46:01.242Z,7.59
2019-02-10T00:47:01.242Z,7.66
2019-02-10T00:48:01.243Z,7.64
2019-02-10T00:49:01.221Z,7.62
2019-02-10T00:50:01.203Z,7.56
2019-02-10T00:51:01.201Z,7.58
2019-02-10T00:52:01.188Z,7.64
2019-02-10T00:53:01.189Z,7.62
2019-02-10T00:54:01.152Z,7.67
2019-02-10T00:55:01.273Z,7.61
2019-02-10T00:56:01.145Z,7.55
2019-02-10T00:57:01.129Z,7.56
2019-02-10T00:58:01.138Z,7.59
2019-02-10T00:59:01.124Z,7.48
2019-02-10T01:00:01.105Z,7.53
2019-02-10T01:01:01.080Z,7.62
2019-02-10T01:02:01.077Z,7.67
2019-02-10T01:03:01.073Z,7.70
2019-02-10T01:04:01.053Z,7.66
2019-02-10T01:05:01.044Z,7.55
2019-02-10T01:06:01.028Z,7.53
2019-02-10T01:07:01.025Z,7.46
2019-02-10T01:08:01.024Z,7.46
2019-02-10T01:09:00.998Z,7.50
2019-02-10T01:10:00.980Z,7.40
2019-02-10T01:11:00.972Z,7.41
2019-02-10T01:12:00.987Z,7.41
2019-02-10T01:13:00.979Z,7.37
2019-02-10T01:14:00.937Z,7.40
2019-02-10T01:15:00.934Z,7.33
2019-02-10T01:16:00.914Z,7.31
2019-02-10T01:17:00.906Z,7.26
2019-02-10T01:18:00.934Z,7.18
2019-02-10T01:19:00.886Z,7.15
2019-02-10T01:20:00.867Z,7.22
2019-02-10T01:21:00.865Z,7.18
2019-02-10T01:22:00.853Z,7.22
2019-02-10T01:23:00.835Z,7.18
2019-02-10T01:24:00.840Z,7.23
2019-02-10T01:25:00.818Z,7.14
2019-02-10T01:26:00.799Z,7.14
2019-02-10T01:27:00.793Z,7.26
2019-02-10T01:28:00.794Z,7.29
2019-02-10T01:29:00.801Z,7.26
2019-02-10T01:30:00.765Z,7.11
2019-02-10T01:31:00.760Z,7.26
2019-02-10T01:32:00.742Z,7.14
2019-02-10T01:33:00.733Z,7.31
2019-02-10T01:34:00.769Z,7.29
2019-02-10T01:35:00.726Z,7.32
2019-02-10T01:36:00.687Z,7.21
2019-02-10T01:37:00.688Z,7.14
2019-02-10T01:38:00.676Z,7.23
2019-02-10T01:39:00.725Z,7.18
2019-02-10T01:40:00.663Z,7.13
2019-02-10T01:41:00.721Z,7.25
2019-02-10T01:42:00.633Z,7.13
2019-02-10T01:43:00.730Z,7.10
2019-02-10T01:44:00.618Z,7.03
2019-02-10T01:45:00.644Z,7.04
2019-02-10T01:46:00.587Z,7.11
2019-02-10T01:47:00.657Z,7.05
2019-02-10T01:48:00.566Z,7.07
2019-02-10T01:49:00.595Z,7.00
2019-02-10T01:50:00.532Z,7.03
2019-02-10T01:51:00.569Z,7.00
2019-02-10T01:52:00.529Z,6.97
2019-02-10T01:53:00.587Z,6.95
2019-02-10T01:54:00.508Z,7.00
2019-02-10T01:55:00.498Z,6.95
2019-02-10T01:56:00.478Z,7.04
2019-02-10T01:57:00.510Z,6.93
2019-02-10T01:58:00.462Z,6.90
2019-02-10T01:59:00.562Z,6.93
2019-02-10T02:00:00.435Z,7.07
2019-02-10T02:01:00.434Z,7.14
2019-02-10T02:02:00.403Z,7.03
2019-02-10T02:03:00.449Z,7.04
2019-02-10T02:04:00.412Z,7.03
2019-02-10T02:05:07.352Z,7.01
2019-02-10T02:06:00.361Z,7.05
2019-02-10T02:07:01.395Z,7.05
2019-02-10T02:08:00.333Z,7.05
2019-02-10T02:09:00.330Z,7.10
2019-02-10T02:10:00.346Z,7.04
2019-02-10T02:11:01.324Z,7.10
2019-02-10T02:12:00.288Z,7.13
2019-02-10T02:13:00.315Z,7.00
2019-02-10T02:14:00.270Z,7.04
2019-02-10T02:15:00.355Z,7.07
2019-02-10T02:16:00.250Z,7.05
2019-02-10T02:17:00.342Z,7.10
2019-02-10T02:18:00.228Z,7.08
2019-02-10T02:19:00.248Z,7.10
2019-02-10T02:20:00.235Z,7.10
2019-02-10T02:21:00.267Z,7.15
2019-02-10T02:22:00.177Z,7.23
2019-02-10T02:23:00.277Z,7.21
2019-02-10T02:24:00.165Z,7.15
2019-02-10T02:25:00.283Z,7.14
2019-02-10T02:26:00.178Z,7.18
2019-02-10T02:27:00.200Z,7.14
2019-02-10T02:28:00.116Z,7.22
2019-02-10T02:29:00.140Z,7.23
2019-02-10T02:30:00.233Z,7.21
2019-02-10T02:31:00.126Z,7.15
2019-02-10T02:32:00.074Z,7.14
2019-02-10T02:33:00.143Z,7.13
2019-02-10T02:34:00.050Z,7.21
2019-02-10T02:35:00.077Z,7.21
2019-02-10T02:36:00.022Z,7.21
2019-02-10T02:37:07.663Z,7.14
2019-02-10T02:38:00.997Z,7.26
2019-02-10T02:39:00.081Z,7.15
2019-02-10T02:39:59.994Z,7.22
2019-02-10T02:40:59.998Z,7.28
2019-02-10T02:41:59.958Z,7.28
2019-02-10T02:43:00.004Z,7.10
2019-02-10T02:43:59.933Z,7.18
2019-02-10T02:45:00.042Z,7.14
2019-02-10T02:45:59.910Z,7.23
2019-02-10T02:46:59.934Z,7.31
2019-02-10T02:47:59.890Z,7.31
2019-02-10T02:48:59.941Z,7.28
2019-02-10T02:49:59.889Z,7.22
2019-02-10T02:51:06.833Z,7.18
2019-02-10T02:51:59.861Z,7.23
2019-02-10T02:53:00.899Z,7.22
2019-02-10T02:53:59.827Z,7.32
2019-02-10T02:55:01.884Z,7.29
2019-02-10T02:55:59.805Z,7.28
2019-02-10T02:57:00.816Z,7.21
2019-02-10T02:57:59.797Z,7.19
2019-02-10T02:58:59.807Z,7.28
2019-02-10T02:59:59.780Z,7.29
2019-02-10T03:00:59.824Z,7.29
2019-02-10T03:01:59.733Z,7.25
2019-02-10T03:02:59.835Z,7.32
2019-02-10T03:03:59.749Z,7.22
2019-02-10T03:04:59.769Z,7.25
2019-02-10T03:05:59.697Z,7.31
2019-02-10T03:06:59.763Z,7.26
2019-02-10T03:07:59.678Z,7.23
2019-02-10T03:08:59.668Z,7.25
2019-02-10T03:09:59.651Z,7.26
2019-02-10T03:10:59.708Z,7.25
2019-02-10T03:11:59.638Z,7.25
2019-02-10T03:12:59.703Z,7.25
2019-02-10T03:13:59.600Z,7.26
2019-02-10T03:14:59.616Z,7.31
2019-02-10T03:15:59.591Z,7.41
2019-02-10T03:16:59.624Z,7.31
2019-02-10T03:17:59.584Z,7.31
2019-02-10T03:18:59.639Z,7.37
2019-02-10T03:19:59.582Z,7.40
2019-02-10T03:20:59.578Z,7.41
2019-02-10T03:21:59.528Z,7.37
2019-02-10T03:22:59.565Z,7.31
2019-02-10T03:23:59.488Z,7.29
2019-02-10T03:24:59.577Z,7.39
2019-02-10T03:25:59.491Z,7.32
2019-02-10T03:26:59.490Z,7.37
2019-02-10T03:27:59.457Z,7.40
2019-02-10T03:28:59.499Z,7.39
2019-02-10T03:29:59.427Z,7.43
2019-02-10T03:30:59.447Z,7.41
2019-02-10T03:31:59.402Z,7.37
2019-02-10T03:32:59.427Z,7.41
2019-02-10T03:33:59.386Z,7.36
2019-02-10T03:35:01.490Z,7.55
2019-02-10T03:35:59.384Z,7.47
2019-02-10T03:37:01.399Z,7.43
2019-02-10T03:37:59.338Z,7.46
2019-02-10T03:38:59.362Z,7.55
2019-02-10T03:39:59.319Z,7.40
2019-02-10T03:41:01.362Z,7.43
2019-02-10T03:41:59.293Z,7.25
2019-02-10T03:43:00.318Z,7.33
2019-02-10T03:43:59.267Z,7.23
2019-02-10T03:44:59.302Z,7.22
2019-02-10T03:45:59.263Z,7.21
2019-02-10T03:46:59.348Z,7.15
2019-02-10T03:47:59.222Z,7.13
2019-02-10T03:48:59.233Z,7.21
2019-02-10T03:49:59.206Z,7.21
2019-02-10T03:50:59.282Z,7.10
2019-02-10T03:51:59.191Z,7.15
2019-02-10T03:52:59.255Z,7.08
2019-02-10T03:53:59.155Z,7.13
2019-02-10T03:54:59.173Z,7.13
2019-02-10T03:55:59.159Z,7.28
2019-02-10T03:56:59.200Z,7.18
2019-02-10T03:57:59.127Z,7.21
2019-02-10T03:58:59.191Z,7.19
2019-02-10T03:59:59.105Z,7.19
2019-02-10T04:00:59.144Z,7.19
2019-02-10T04:01:59.073Z,7.21
2019-02-10T04:02:59.123Z,7.21
2019-02-10T04:03:59.054Z,7.15
2019-02-10T04:04:59.147Z,7.13
2019-02-10T04:05:59.050Z,7.18
2019-02-10T04:06:59.047Z,7.08
2019-02-10T04:07:59.028Z,7.08
2019-02-10T04:08:59.063Z,7.13
2019-02-10T04:09:58.986Z,7.14
2019-02-10T04:10:59.086Z,7.14
2019-02-10T04:11:59.016Z,7.14
2019-02-10T04:12:58.996Z,7.26
2019-02-10T04:13:58.950Z,7.22
2019-02-10T04:14:59.002Z,7.15
2019-02-10T04:15:58.922Z,7.18
2019-02-10T04:16:58.936Z,7.11
2019-02-10T04:17:58.890Z,7.11
2019-02-10T04:18:58.926Z,7.18
2019-02-10T04:19:58.869Z,7.26
2019-02-10T04:21:05.840Z,7.15
2019-02-10T04:21:58.866Z,7.18
2019-02-10T04:23:00.911Z,7.14
2019-02-10T04:23:58.825Z,7.14
2019-02-10T04:24:58.861Z,7.14
2019-02-10T04:25:58.812Z,7.15
2019-02-10T04:26:59.832Z,7.21
2019-02-10T04:27:58.790Z,7.14
2019-02-10T04:28:58.804Z,7.19
2019-02-10T04:29:58.757Z,7.10
2019-02-10T04:30:58.797Z,7.18
2019-02-10T04:31:58.782Z,7.19
2019-02-10T04:32:58.819Z,7.10
2019-02-10T04:33:58.717Z,7.14
2019-02-10T04:34:58.730Z,7.13
2019-02-10T04:35:58.702Z,7.14
2019-02-10T04:36:58.776Z,7.18
2019-02-10T04:37:58.677Z,7.18
2019-02-10T04:38:58.750Z,7.10
2019-02-10T04:39:58.655Z,7.10
2019-02-10T04:40:58.694Z,7.10
2019-02-10T04:41:58.635Z,7.03
2019-02-10T04:42:58.703Z,7.04
2019-02-10T04:43:58.608Z,7.03
2019-02-10T04:44:58.695Z,7.00
2019-02-10T04:45:58.582Z,6.90
2019-02-10T04:46:58.634Z,6.96
2019-02-10T04:47:58.577Z,6.93
2019-02-10T04:48:58.626Z,7.00
2019-02-10T04:49:58.534Z,6.90
2019-02-10T04:50:58.631Z,6.90
2019-02-10T04:51:58.560Z,6.92
2019-02-10T04:52:58.554Z,7.04
2019-02-10T04:53:58.491Z,6.95
2019-02-10T04:54:58.554Z,6.92
2019-02-10T04:55:58.472Z,6.85
2019-02-10T04:56:58.567Z,6.85
2019-02-10T04:57:58.459Z,6.83
2019-02-10T04:58:58.540Z,6.83
2019-02-10T04:59:58.436Z,6.72
2019-02-10T05:00:58.498Z,6.71
2019-02-10T05:01:58.410Z,6.72
2019-02-10T05:02:58.472Z,6.77
2019-02-10T05:03:58.386Z,6.75
2019-02-10T05:05:06.367Z,6.64
2019-02-10T05:05:58.361Z,6.71
2019-02-10T05:07:06.344Z,6.68
2019-02-10T05:07:58.352Z,6.64
2019-02-10T05:08:58.348Z,6.68
2019-02-10T05:09:58.329Z,6.68
2019-02-10T05:10:58.365Z,6.67
2019-02-10T05:11:58.291Z,6.70
2019-02-10T05:12:59.329Z,6.71
2019-02-10T05:13:58.272Z,6.68
2019-02-10T05:14:58.289Z,6.64
2019-02-10T05:15:58.248Z,6.64
2019-02-10T05:16:58.304Z,6.59
2019-02-10T05:17:58.255Z,6.62
2019-02-10T05:18:58.313Z,6.60
2019-02-10T05:19:58.213Z,6.67
2019-02-10T05:20:58.227Z,6.67
2019-02-10T05:21:58.192Z,6.57
2019-02-10T05:22:58.284Z,6.62
2019-02-10T05:24:03.502Z,6.50
2019-02-10T05:24:59.170Z,6.60
2019-02-10T05:25:58.145Z,6.52
2019-02-10T05:26:58.157Z,6.53
2019-02-10T05:27:58.146Z,6.47
2019-02-10T05:28:58.175Z,6.53
2019-02-10T05:29:58.114Z,6.49
2019-02-10T05:30:58.218Z,6.54
2019-02-10T05:31:58.076Z,6.50
2019-02-10T05:32:58.132Z,6.47
2019-02-10T05:33:58.064Z,6.47
2019-02-10T05:34:58.114Z,6.49
2019-02-10T05:35:58.028Z,6.50
2019-02-10T05:36:58.134Z,6.53
2019-02-10T05:38:03.762Z,6.50
2019-02-10T05:38:59.125Z,6.50
2019-02-10T05:39:57.993Z,6.54
2019-02-10T05:40:58.052Z,6.53
2019-02-10T05:41:57.966Z,6.50
2019-02-10T05:42:58.069Z,6.46
2019-02-10T05:43:57.959Z,6.49
2019-02-10T05:44:57.999Z,6.52
2019-02-10T05:45:57.924Z,6.57
2019-02-10T05:46:57.991Z,6.53
2019-02-10T05:47:57.901Z,6.47
2019-02-10T05:48:57.953Z,6.49
2019-02-10T05:49:57.885Z,6.49
2019-02-10T05:51:05.846Z,6.44
2019-02-10T05:51:57.865Z,6.47
2019-02-10T05:53:05.846Z,6.41
2019-02-10T05:53:57.857Z,6.44
2019-02-10T05:54:57.849Z,6.39
2019-02-10T05:55:57.840Z,6.31
2019-02-10T05:56:57.857Z,6.28
2019-02-10T05:57:57.811Z,6.28
2019-02-10T05:58:57.921Z,6.38
2019-02-10T05:59:57.796Z,6.32
2019-02-10T06:00:57.789Z,6.38
2019-02-10T06:01:57.774Z,6.43
2019-02-10T06:02:57.818Z,6.35
2019-02-10T06:03:57.741Z,6.31
2019-02-10T06:04:57.818Z,6.39
2019-02-10T06:05:57.705Z,6.41
2019-02-10T06:06:57.741Z,6.34
2019-02-10T06:07:57.690Z,6.36
2019-02-10T06:08:57.778Z,6.41
2019-02-10T06:09:57.686Z,6.32
2019-02-10T06:10:57.754Z,6.29
2019-02-10T06:11:57.649Z,6.29
2019-02-10T06:12:57.759Z,6.29
2019-02-10T06:13:57.683Z,6.28
2019-02-10T06:14:57.710Z,6.25
2019-02-10T06:15:57.603Z,6.29
2019-02-10T06:16:57.706Z,6.28
2019-02-10T06:17:57.570Z,6.20
2019-02-10T06:18:57.648Z,6.22
2019-02-10T06:19:57.556Z,6.19
2019-02-10T06:20:57.607Z,6.22
2019-02-10T06:21:57.573Z,6.29
2019-02-10T06:22:57.621Z,6.25
2019-02-10T06:23:57.516Z,6.13
2019-02-10T06:24:57.532Z,6.15
2019-02-10T06:25:57.486Z,6.17
2019-02-10T06:26:57.571Z,6.17
2019-02-10T06:27:57.462Z,6.13
2019-02-10T06:28:57.535Z,6.07
2019-02-10T06:29:57.443Z,6.06
2019-02-10T06:30:57.471Z,6.10
2019-02-10T06:31:57.443Z,6.02
2019-02-10T06:32:57.508Z,6.05
2019-02-10T06:33:57.397Z,6.06
2019-02-10T06:35:00.938Z,6.01
2019-02-10T06:35:57.378Z,5.97
2019-02-10T06:37:06.354Z,6.05
2019-02-10T06:37:57.378Z,6.05
2019-02-10T06:38:59.372Z,6.06
2019-02-10T06:39:57.350Z,5.99
2019-02-10T06:40:57.334Z,6.02
2019-02-10T06:41:57.310Z,6.05
2019-02-10T06:42:57.376Z,6.06
2019-02-10T06:43:57.284Z,6.09
2019-02-10T06:44:57.385Z,6.05
2019-02-10T06:45:57.267Z,6.06
2019-02-10T06:46:57.273Z,6.07
2019-02-10T06:47:57.830Z,6.10
2019-02-10T06:48:57.311Z,6.05
2019-02-10T06:49:57.232Z,5.99
2019-02-10T06:50:57.302Z,5.97
2019-02-10T06:51:57.197Z,5.99
2019-02-10T06:52:57.212Z,6.05
2019-02-10T06:53:57.178Z,6.02
2019-02-10T06:54:57.269Z,5.99
2019-02-10T06:55:57.152Z,6.02
2019-02-10T06:56:57.239Z,5.95
2019-02-10T06:57:57.130Z,6.01
2019-02-10T06:58:57.150Z,5.99
2019-02-10T06:59:57.121Z,5.99
2019-02-10T07:00:57.184Z,6.02
2019-02-10T07:01:57.093Z,6.02
2019-02-10T07:02:57.177Z,6.05
2019-02-10T07:03:57.068Z,6.01
2019-02-10T07:04:57.117Z,6.02
2019-02-10T07:05:57.051Z,6.09
2019-02-10T07:06:57.117Z,5.99
2019-02-10T07:07:57.033Z,6.02
2019-02-10T07:08:57.117Z,6.09
2019-02-10T07:09:57.018Z,6.05
2019-02-10T07:10:57.027Z,6.01
2019-02-10T07:11:56.978Z,6.06
2019-02-10T07:12:57.044Z,6.07
2019-02-10T07:13:56.976Z,6.06
2019-02-10T07:14:57.056Z,6.10
2019-02-10T07:15:56.946Z,5.99
2019-02-10T07:16:56.968Z,6.01
2019-02-10T07:17:56.925Z,5.95
2019-02-10T07:18:56.981Z,5.95
2019-02-10T07:19:56.935Z,6.02
2019-02-10T07:21:05.849Z,6.06
2019-02-10T07:21:56.869Z,5.95
2019-02-10T07:23:03.870Z,6.02
2019-02-10T07:23:56.847Z,5.99
2019-02-10T07:24:58.894Z,6.02
2019-02-10T07:25:56.846Z,5.99
2019-02-10T07:26:56.831Z,6.02
2019-02-10T07:27:56.803Z,5.97
2019-02-10T07:28:56.847Z,5.95
2019-02-10T07:29:56.780Z,5.97
2019-02-10T07:30:56.897Z,5.92
2019-02-10T07:31:56.761Z,5.99
2019-02-10T07:32:56.770Z,5.97
2019-02-10T07:33:58.524Z,5.99
2019-02-10T07:34:56.783Z,5.98
2019-02-10T07:35:56.732Z,5.95
2019-02-10T07:36:56.819Z,5.98
2019-02-10T07:37:56.696Z,5.91
2019-02-10T07:38:56.708Z,5.97
2019-02-10T07:39:56.673Z,5.97
2019-02-10T07:40:56.750Z,5.95
2019-02-10T07:41:56.653Z,5.97
2019-02-10T07:42:56.780Z,5.84
2019-02-10T07:43:56.629Z,5.95
2019-02-10T07:44:56.651Z,5.95
2019-02-10T07:45:56.618Z,5.92
2019-02-10T07:46:56.664Z,5.97
2019-02-10T07:47:56.584Z,5.98
2019-02-10T07:48:56.702Z,5.98
2019-02-10T07:49:56.560Z,5.97
2019-02-10T07:50:56.617Z,5.99
2019-02-10T07:51:56.540Z,6.06
2019-02-10T07:52:56.602Z,5.97
2019-02-10T07:53:56.524Z,6.05
2019-02-10T07:54:56.640Z,6.02
2019-02-10T07:55:56.509Z,5.97
2019-02-10T07:56:56.524Z,6.01
2019-02-10T07:57:56.473Z,5.97
2019-02-10T07:58:56.539Z,5.99
2019-02-10T07:59:56.469Z,6.02
2019-02-10T08:00:56.592Z,6.02
2019-02-10T08:01:56.429Z,6.05
2019-02-10T08:02:56.464Z,6.05
2019-02-10T08:03:56.410Z,6.05
2019-02-10T08:04:56.476Z,6.05
2019-02-10T08:05:56.392Z,6.05
2019-02-10T08:07:05.443Z,6.09
2019-02-10T08:07:56.367Z,6.15
2019-02-10T08:09:03.365Z,6.13
2019-02-10T08:09:56.349Z,6.13
2019-02-10T08:10:58.361Z,6.10
2019-02-10T08:11:56.361Z,6.13
2019-02-10T08:12:56.326Z,6.17
2019-02-10T08:13:56.326Z,6.15
2019-02-10T08:14:56.349Z,6.19
2019-02-10T08:15:56.278Z,6.16
2019-02-10T08:16:56.382Z,6.28
2019-02-10T08:17:56.281Z,6.25
2019-02-10T08:18:56.269Z,6.19
2019-02-10T08:19:56.231Z,6.26
2019-02-10T08:20:56.295Z,6.19
2019-02-10T08:21:56.222Z,6.29
2019-02-10T08:22:56.296Z,6.28
2019-02-10T08:23:56.215Z,6.32
2019-02-10T08:24:56.212Z,6.31
2019-02-10T08:25:56.171Z,6.38
2019-02-10T08:26:56.246Z,6.39
2019-02-10T08:27:56.147Z,6.41
2019-02-10T08:28:56.239Z,6.39
2019-02-10T08:29:56.147Z,6.43
2019-02-10T08:30:56.143Z,6.41
2019-02-10T08:31:56.117Z,6.36
2019-02-10T08:32:56.156Z,6.36
2019-02-10T08:33:57.231Z,6.49
2019-02-10T08:34:56.173Z,6.50
2019-02-10T08:35:56.073Z,6.52
2019-02-10T08:36:56.108Z,6.49
2019-02-10T08:37:56.055Z,6.49
2019-02-10T08:38:56.096Z,6.47
2019-02-10T08:39:56.018Z,6.60
2019-02-10T08:40:56.109Z,6.67
2019-02-10T08:41:56.047Z,6.64
2019-02-10T08:42:56.037Z,6.70
2019-02-10T08:43:55.973Z,6.71
2019-02-10T08:44:56.048Z,6.71
2019-02-10T08:45:55.952Z,6.75
2019-02-10T08:46:56.063Z,6.75
2019-02-10T08:47:55.975Z,6.87
2019-02-10T08:48:55.987Z,6.75
2019-02-10T08:49:55.906Z,6.83
2019-02-10T08:50:55.972Z,6.90
2019-02-10T08:51:55.889Z,6.86
2019-02-10T08:52:59.404Z,6.93
2019-02-10T08:53:55.881Z,6.95
2019-02-10T08:55:02.899Z,6.86
2019-02-10T08:55:55.841Z,6.96
2019-02-10T08:56:57.858Z,7.03
2019-02-10T08:57:55.833Z,6.90
2019-02-10T08:58:55.823Z,6.93
2019-02-10T08:59:55.796Z,7.03
2019-02-10T09:00:55.855Z,6.96
2019-02-10T09:01:55.780Z,6.90
2019-02-10T09:02:55.789Z,6.78
2019-02-10T09:03:55.781Z,6.72
2019-02-10T09:04:55.771Z,6.72
2019-02-10T09:05:55.733Z,6.85
2019-02-10T09:06:55.804Z,6.59
2019-02-10T09:07:55.721Z,6.70
2019-02-10T09:09:02.471Z,6.67
2019-02-10T09:09:56.691Z,6.67
2019-02-10T09:10:55.733Z,6.64
2019-02-10T09:11:55.665Z,6.67
2019-02-10T09:12:55.771Z,6.56
2019-02-10T09:13:55.640Z,6.64
2019-02-10T09:14:55.743Z,6.57
2019-02-10T09:15:55.619Z,6.64
2019-02-10T09:16:55.646Z,6.67
2019-02-10T09:17:55.611Z,6.67
2019-02-10T09:18:55.676Z,6.67
2019-02-10T09:19:55.581Z,6.67
2019-02-10T09:20:55.691Z,6.68
2019-02-10T09:21:55.557Z,6.67
2019-02-10T09:22:55.609Z,6.62
2019-02-10T09:23:55.536Z,6.70
2019-02-10T09:24:55.656Z,6.65
2019-02-10T09:25:55.518Z,6.64
2019-02-10T09:26:55.613Z,6.68
2019-02-10T09:27:55.502Z,6.68
2019-02-10T09:28:56.552Z,6.68
2019-02-10T09:29:55.470Z,6.70
2019-02-10T09:30:55.594Z,6.74
2019-02-10T09:31:55.456Z,6.70
2019-02-10T09:32:55.471Z,6.82
2019-02-10T09:33:55.420Z,6.71
2019-02-10T09:34:55.466Z,6.85
2019-02-10T09:35:55.397Z,6.78
2019-02-10T09:36:55.507Z,6.86
2019-02-10T09:37:55.424Z,6.82
2019-02-10T09:38:55.390Z,6.80
2019-02-10T09:39:55.355Z,6.90
2019-02-10T09:40:55.411Z,6.83
2019-02-10T09:41:55.335Z,6.96
2019-02-10T09:42:55.455Z,6.92
2019-02-10T09:43:55.328Z,6.93
2019-02-10T09:44:55.324Z,6.97
2019-02-10T09:45:55.290Z,6.97
2019-02-10T09:46:55.344Z,7.05
2019-02-10T09:47:55.275Z,7.07
2019-02-10T09:48:55.409Z,7.08
2019-02-10T09:49:55.253Z,7.13
2019-02-10T09:50:55.268Z,7.15
2019-02-10T09:51:55.251Z,7.21
2019-02-10T09:52:55.279Z,7.19
2019-02-10T09:53:55.218Z,7.29
2019-02-10T09:54:55.307Z,7.39
2019-02-10T09:55:55.181Z,7.47
2019-02-10T09:56:55.173Z,7.41
2019-02-10T09:57:55.156Z,7.59
2019-02-10T09:58:55.263Z,7.41
2019-02-10T09:59:55.136Z,7.53
2019-02-10T10:00:56.169Z,7.56
2019-02-10T10:01:55.113Z,7.59
2019-02-10T10:02:56.183Z,7.53
2019-02-10T10:03:55.107Z,7.62
2019-02-10T10:04:55.158Z,7.67
2019-02-10T10:05:55.071Z,7.70
2019-02-10T10:06:56.128Z,7.62
2019-02-10T10:07:55.048Z,7.67
2019-02-10T10:08:55.106Z,7.75
2019-02-10T10:09:55.024Z,7.70
2019-02-10T10:10:55.116Z,7.69
2019-02-10T10:11:55.007Z,7.67
2019-02-10T10:12:55.153Z,7.77
2019-02-10T10:13:54.982Z,7.77
2019-02-10T10:14:55.045Z,7.81
2019-02-10T10:15:54.975Z,7.75
2019-02-10T10:16:55.033Z,7.72
2019-02-10T10:17:54.940Z,7.70
2019-02-10T10:18:54.969Z,7.74
2019-02-10T10:19:55.055Z,7.72
2019-02-10T10:20:54.953Z,7.74
2019-02-10T10:21:54.895Z,7.75
2019-02-10T10:22:55.991Z,7.69
2019-02-10T10:23:54.871Z,7.87
2019-02-10T10:24:54.950Z,7.90
2019-02-10T10:25:54.845Z,7.84
2019-02-10T10:26:56.969Z,7.70
2019-02-10T10:27:54.837Z,7.87
2019-02-10T10:28:55.834Z,7.75
2019-02-10T10:29:54.840Z,7.84
2019-02-10T10:30:54.844Z,7.84
2019-02-10T10:31:54.780Z,7.87
2019-02-10T10:32:54.779Z,7.85
2019-02-10T10:33:54.769Z,7.84
2019-02-10T10:34:54.769Z,7.85
2019-02-10T10:35:54.739Z,7.83
2019-02-10T10:36:54.758Z,7.81
2019-02-10T10:37:54.712Z,7.81
2019-02-10T10:38:54.706Z,7.81
2019-02-10T10:39:54.705Z,7.88
2019-02-10T10:40:54.686Z,7.98
2019-02-10T10:41:54.671Z,7.99
2019-02-10T10:42:54.707Z,7.93
2019-02-10T10:43:54.646Z,8.05
2019-02-10T10:44:54.791Z,8.03
2019-02-10T10:45:54.627Z,8.08
2019-02-10T10:46:54.619Z,8.09
2019-02-10T10:47:54.609Z,8.11
2019-02-10T10:48:54.642Z,8.05
2019-02-10T10:49:54.595Z,8.17
2019-02-10T10:50:54.580Z,8.16
2019-02-10T10:51:54.559Z,8.11
2019-02-10T10:52:54.585Z,8.17
2019-02-10T10:53:54.539Z,8.23
2019-02-10T10:54:54.588Z,8.27
2019-02-10T10:55:54.513Z,8.35
2019-02-10T10:56:54.592Z,8.36
2019-02-10T10:57:54.508Z,8.35
2019-02-10T10:58:54.540Z,8.32
2019-02-10T10:59:54.487Z,8.39
2019-02-10T11:00:54.512Z,8.39
2019-02-10T11:01:54.449Z,8.38
2019-02-10T11:02:54.444Z,8.39
2019-02-10T11:03:54.430Z,8.44
2019-02-10T11:04:54.441Z,8.34
2019-02-10T11:05:54.409Z,8.50
2019-02-10T11:06:54.435Z,8.44
2019-02-10T11:07:54.381Z,8.42
2019-02-10T11:08:54.383Z,8.54
2019-02-10T11:09:54.380Z,8.56
2019-02-10T11:10:54.351Z,8.59
2019-02-10T11:11:54.356Z,8.57
2019-02-10T11:12:55.419Z,8.54
2019-02-10T11:13:54.319Z,8.61
2019-02-10T11:14:54.347Z,8.56
2019-02-10T11:15:54.291Z,8.60
2019-02-10T11:16:54.288Z,8.60
2019-02-10T11:17:54.303Z,8.60
2019-02-10T11:18:54.280Z,8.61
2019-02-10T11:19:54.261Z,8.63
2019-02-10T11:20:54.273Z,8.63
2019-02-10T11:21:54.233Z,8.68
2019-02-10T11:22:55.282Z,8.66
2019-02-10T11:23:54.232Z,8.75
2019-02-10T11:24:54.210Z,8.63
2019-02-10T11:25:54.203Z,8.74
2019-02-10T11:26:54.593Z,8.78
2019-02-10T11:27:54.160Z,8.79
2019-02-10T11:28:55.225Z,8.75
2019-02-10T11:29:54.184Z,8.84
2019-02-10T11:30:54.164Z,8.77
2019-02-10T11:31:54.119Z,8.87
2019-02-10T11:32:54.117Z,8.89
2019-02-10T11:33:54.096Z,8.86
2019-02-10T11:34:54.091Z,8.92
2019-02-10T11:35:54.118Z,8.92
2019-02-10T11:36:54.070Z,8.97
2019-02-10T11:37:54.051Z,8.99
2019-02-10T11:38:54.068Z,8.97
2019-02-10T11:39:54.029Z,8.96
2019-02-10T11:40:54.110Z,9.02
2019-02-10T11:41:54.024Z,9.00
2019-02-10T11:42:54.005Z,9.08
2019-02-10T11:43:53.988Z,9.11
2019-02-10T11:44:53.979Z,9.08
2019-02-10T11:45:53.982Z,9.11
2019-02-10T11:46:55.033Z,9.15
2019-02-10T11:47:53.970Z,9.16
2019-02-10T11:48:53.949Z,9.11
2019-02-10T11:49:53.929Z,9.13
2019-02-10T11:50:53.941Z,9.11
2019-02-10T11:51:53.904Z,9.11
2019-02-10T11:52:53.894Z,9.11
2019-02-10T11:53:53.918Z,9.13
2019-02-10T11:54:53.901Z,9.19
2019-02-10T11:55:53.873Z,9.30
2019-02-10T11:56:53.856Z,9.29
2019-02-10T11:57:53.837Z,9.37
2019-02-10T11:58:53.831Z,9.31
2019-02-10T11:59:53.901Z,9.37
2019-02-10T12:00:53.854Z,9.45
2019-02-10T12:01:53.817Z,9.44
2019-02-10T12:02:53.820Z,9.49
2019-02-10T12:03:53.769Z,9.52
2019-02-10T12:04:54.817Z,9.56
2019-02-10T12:05:53.767Z,9.59
2019-02-10T12:06:53.746Z,9.51
2019-02-10T12:07:53.758Z,9.62
2019-02-10T12:08:53.855Z,9.62
2019-02-10T12:09:53.734Z,9.74
2019-02-10T12:10:53.715Z,9.82
2019-02-10T12:11:53.694Z,9.77
2019-02-10T12:12:53.736Z,9.80
2019-02-10T12:13:53.712Z,9.77
2019-02-10T12:14:54.657Z,9.74
2019-02-10T12:15:53.666Z,9.80
2019-02-10T12:16:53.630Z,9.77
2019-02-10T12:17:53.617Z,9.80
2019-02-10T12:18:53.614Z,9.70
2019-02-10T12:19:53.726Z,9.67
2019-02-10T12:20:53.653Z,9.76
2019-02-10T12:21:53.597Z,9.64
2019-02-10T12:22:53.600Z,9.67
2019-02-10T12:23:53.576Z,9.67
2019-02-10T12:24:53.616Z,9.67
2019-02-10T12:25:53.583Z,9.62
2019-02-10T12:26:53.536Z,9.69
2019-02-10T12:27:53.562Z,9.51
2019-02-10T12:28:53.494Z,9.58
2019-02-10T12:29:53.485Z,9.56
2019-02-10T12:30:53.526Z,9.54
2019-02-10T12:31:53.557Z,9.56
2019-02-10T12:32:54.491Z,9.51
2019-02-10T12:33:53.446Z,9.58
2019-02-10T12:34:53.431Z,9.52
2019-02-10T12:35:58.271Z,9.52
2019-02-10T12:36:54.501Z,9.49
2019-02-10T12:37:53.407Z,9.47
2019-02-10T12:38:54.388Z,9.49
2019-02-10T12:39:59.691Z,9.52
2019-02-10T12:40:54.359Z,9.52
2019-02-10T12:41:53.380Z,9.44
2019-02-10T12:42:55.423Z,9.47
2019-02-10T12:43:53.350Z,9.45
2019-02-10T12:44:54.315Z,9.49
2019-02-10T12:45:53.346Z,9.45
2019-02-10T12:46:53.305Z,9.48
2019-02-10T12:47:53.279Z,9.56
2019-02-10T12:48:53.270Z,9.54
2019-02-10T12:49:53.254Z,9.52
2019-02-10T12:50:53.269Z,9.48
2019-02-10T12:51:53.257Z,9.56
2019-02-10T12:52:53.252Z,9.70
2019-02-10T12:53:53.235Z,9.69
2019-02-10T12:54:53.226Z,9.52
2019-02-10T12:55:53.188Z,9.49
2019-02-10T12:56:53.211Z,9.49
2019-02-10T12:57:53.170Z,9.54
2019-02-10T12:58:53.175Z,9.51
2019-02-10T12:59:53.153Z,9.51
2019-02-10T13:00:53.135Z,9.51
2019-02-10T13:01:53.192Z,9.49
2019-02-10T13:02:53.110Z,9.52
2019-02-10T13:03:53.094Z,9.56
2019-02-10T13:04:53.121Z,9.42
2019-02-10T13:05:53.069Z,9.48
2019-02-10T13:06:53.074Z,9.42
2019-02-10T13:07:53.047Z,9.44
2019-02-10T13:08:53.043Z,9.39
2019-02-10T13:09:53.038Z,9.30
2019-02-10T13:10:53.016Z,9.33
2019-02-10T13:11:58.317Z,9.24
2019-02-10T13:12:53.994Z,9.22
2019-02-10T13:13:52.986Z,9.18
2019-02-10T13:14:52.977Z,9.21
2019-02-10T13:15:52.983Z,9.18
2019-02-10T13:16:52.989Z,9.22
2019-02-10T13:17:52.933Z,9.39